createdAt,value
2022-09-15T00:02:53.098Z,1.42
2022-09-15T00:05:58.011Z,0.82
2022-09-15T00:09:02.498Z,1.52
2022-09-15T00:12:07.391Z,1.23
2022-09-15T00:15:15.716Z,1.48
2022-09-15T00:18:20.390Z,1.63
2022-09-15T00:21:28.333Z,1.15
2022-09-15T00:24:33.678Z,3.30
2022-09-15T00:27:38.487Z,1.70
2022-09-15T00:30:48.664Z,2.00
2022-09-15T00:33:56.296Z,1.10
2022-09-15T00:37:01.100Z,0.93
2022-09-15T00:40:06.147Z,1.45
2022-09-15T00:43:12.880Z,1.52
2022-09-15T00:46:20.038Z,3.30
2022-09-15T00:49:32.683Z,1.30
2022-09-15T00:52:53.254Z,1.20
2022-09-15T00:55:59.028Z,1.48
2022-09-15T00:59:08.188Z,1.60
2022-09-15T01:02:29.257Z,1.77
2022-09-15T01:05:45.569Z,2.33
2022-09-15T01:08:59.600Z,1.45
2022-09-15T01:12:05.155Z,8.05
2022-09-15T01:15:10.274Z,4.13
2022-09-15T01:18:29.985Z,4.20
2022-09-15T01:21:43.672Z,1.20
2022-09-15T01:24:57.034Z,1.50
2022-09-15T01:28:13.678Z,1.05
2022-09-15T01:32:15.343Z,2.13
2022-09-15T01:35:40.819Z,1.67
2022-09-15T01:39:15.057Z,1.00
2022-09-15T01:42:21.564Z,1.20
2022-09-15T01:45:33.945Z,0.98
2022-09-15T01:48:40.980Z,1.30
2022-09-15T01:51:47.793Z,3.92
2022-09-15T01:54:56.914Z,1.20
2022-09-15T01:58:01.455Z,0.80
2022-09-15T02:01:50.540Z,1.33
2022-09-15T02:05:12.209Z,1.60
2022-09-15T02:08:55.565Z,0.70
2022-09-15T02:12:21.879Z,0.85
2022-09-15T02:15:49.340Z,1.13
2022-09-15T02:19:27.975Z,2.85
2022-09-15T02:22:35.916Z,1.08
2022-09-15T02:25:48.209Z,0.98
2022-09-15T02:28:55.412Z,0.73
2022-09-15T02:32:07.002Z,0.75
2022-09-15T02:35:13.553Z,1.70
2022-09-15T02:38:18.221Z,2.10
2022-09-15T02:41:22.832Z,1.45
2022-09-15T02:44:27.967Z,1.97
2022-09-15T02:47:32.965Z,1.30
2022-09-15T02:50:39.288Z,1.50
2022-09-15T02:53:46.519Z,1.60
2022-09-15T02:56:51.243Z,1.00
2022-09-15T03:00:14.366Z,1.05
2022-09-15T03:03:19.829Z,1.27
2022-09-15T03:06:24.861Z,1.10
2022-09-15T03:09:29.586Z,1.42
2022-09-15T03:12:42.298Z,1.73
2022-09-15T03:15:46.992Z,1.05
2022-09-15T03:18:52.593Z,1.05
2022-09-15T03:21:57.409Z,1.10
2022-09-15T03:25:02.201Z,1.45
2022-09-15T03:28:08.017Z,0.82
2022-09-15T03:31:13.014Z,1.17
2022-09-15T03:34:17.897Z,0.80
2022-09-15T03:37:22.726Z,1.20
2022-09-15T03:40:27.471Z,1.48
2022-09-15T03:43:33.790Z,1.10
2022-09-15T03:46:38.497Z,1.23
2022-09-15T03:49:43.239Z,1.10
2022-09-15T03:52:47.719Z,2.28
2022-09-15T03:55:53.733Z,1.03
2022-09-15T03:59:00.824Z,1.05
2022-09-15T04:02:05.503Z,1.13
2022-09-15T04:05:10.584Z,1.17
2022-09-15T04:08:15.219Z,1.20
2022-09-15T04:11:21.733Z,1.03
2022-09-15T04:14:26.666Z,1.33
2022-09-15T04:17:31.117Z,1.75
2022-09-15T04:20:35.728Z,1.30
2022-09-15T04:23:41.983Z,1.40
2022-09-15T04:26:46.555Z,1.10
2022-09-15T04:29:54.283Z,1.33
2022-09-15T04:32:58.889Z,1.15
2022-09-15T04:36:05.828Z,1.23
2022-09-15T04:39:10.384Z,1.33
2022-09-15T04:42:15.020Z,1.60
2022-09-15T04:45:19.718Z,1.53
2022-09-15T04:48:25.038Z,0.98
2022-09-15T04:54:36.576Z,1.40
2022-09-15T04:57:41.100Z,1.10
2022-09-15T05:00:45.748Z,1.20
2022-09-15T05:03:50.910Z,1.05
2022-09-15T05:06:55.763Z,2.10
2022-09-15T05:10:00.234Z,1.85
2022-09-15T05:13:04.817Z,1.00
2022-09-15T05:16:13.215Z,6.75
2022-09-15T05:19:18.135Z,2.53
2022-09-15T05:22:22.700Z,1.23
2022-09-15T05:25:27.036Z,14.27
2022-09-15T05:28:34.222Z,2.92
2022-09-15T05:31:38.859Z,3.05
2022-09-15T05:34:43.492Z,1.30
2022-09-15T05:37:47.956Z,1.52
2022-09-15T05:40:53.300Z,2.00
2022-09-15T05:43:59.669Z,2.25
2022-09-15T05:47:04.195Z,0.82
2022-09-15T05:50:08.795Z,1.83
2022-09-15T05:53:13.343Z,1.02
2022-09-15T05:56:19.423Z,0.63
2022-09-15T05:59:24.307Z,0.90
2022-09-15T06:02:28.732Z,1.02
2022-09-15T06:05:33.134Z,0.80
2022-09-15T06:08:44.385Z,0.77
2022-09-15T06:11:49.425Z,1.70
2022-09-15T06:14:54.211Z,2.50
2022-09-15T06:17:59.089Z,1.65
2022-09-15T06:21:06.804Z,1.13
2022-09-15T06:24:13.722Z,0.90
2022-09-15T06:27:19.624Z,0.80
2022-09-15T06:30:25.922Z,1.00
2022-09-15T06:33:32.002Z,1.20
2022-09-15T06:36:39.561Z,8.02
2022-09-15T06:39:45.165Z,13.30
2022-09-15T06:42:50.082Z,9.65
2022-09-15T06:45:55.366Z,4.18
2022-09-15T06:49:00.020Z,4.53
2022-09-15T06:52:06.020Z,5.30
2022-09-15T06:55:10.764Z,2.75
2022-09-15T06:58:19.694Z,1.70
2022-09-15T07:01:32.339Z,1.77
2022-09-15T07:04:37.930Z,1.17
2022-09-15T07:07:42.727Z,2.13
2022-09-15T07:10:47.871Z,1.42
2022-09-15T07:13:53.024Z,1.45
2022-09-15T07:20:03.080Z,1.58
2022-09-15T07:23:09.043Z,1.70
2022-09-15T07:26:31.343Z,1.63
2022-09-15T07:29:37.924Z,1.55
2022-09-15T07:32:43.028Z,1.20
2022-09-15T07:35:49.088Z,1.58
2022-09-15T07:38:54.084Z,10.02
2022-09-15T07:41:58.963Z,1.92
2022-09-15T07:45:03.541Z,2.00
2022-09-15T07:48:08.557Z,1.48
2022-09-15T07:51:14.061Z,1.73
2022-09-15T07:54:22.640Z,2.22
2022-09-15T07:57:28.328Z,1.95
2022-09-15T08:03:42.912Z,3.67
2022-09-15T08:06:48.730Z,2.90
2022-09-15T08:09:53.459Z,5.63
2022-09-15T08:13:00.196Z,6.85
2022-09-15T08:16:14.636Z,3.85
2022-09-15T08:19:21.585Z,5.55
2022-09-15T08:22:25.989Z,3.90
2022-09-15T08:25:31.876Z,4.07
2022-09-15T08:28:36.944Z,3.63
2022-09-15T08:31:42.052Z,2.67
2022-09-15T08:34:46.817Z,2.55
2022-09-15T08:37:54.253Z,2.30
2022-09-15T08:41:20.331Z,2.45
2022-09-15T08:44:53.041Z,2.17
2022-09-15T08:48:05.815Z,2.25
2022-09-15T08:51:19.308Z,2.33
2022-09-15T08:54:28.484Z,7.80
2022-09-15T08:57:33.373Z,6.03
2022-09-15T09:00:37.937Z,5.18
2022-09-15T09:03:49.560Z,4.63
2022-09-15T09:07:29.247Z,4.65
2022-09-15T09:10:42.502Z,4.70
2022-09-15T09:14:09.346Z,4.45
2022-09-15T09:17:39.129Z,7.28
2022-09-15T09:21:04.985Z,5.15
2022-09-15T09:24:38.124Z,6.43
2022-09-15T09:27:42.681Z,8.00
2022-09-15T09:30:47.477Z,13.80
2022-09-15T09:34:27.061Z,16.58
2022-09-15T09:37:32.367Z,20.92
2022-09-15T09:40:37.916Z,21.75
2022-09-15T09:43:45.661Z,17.10
2022-09-15T09:46:51.584Z,13.98
2022-09-15T09:49:56.941Z,14.02
2022-09-15T09:53:01.668Z,12.15
2022-09-15T09:56:28.352Z,14.32
2022-09-15T09:59:44.908Z,11.73
2022-09-15T10:02:49.849Z,13.32
2022-09-15T10:06:08.176Z,12.43
2022-09-15T10:09:18.949Z,12.00
2022-09-15T10:12:35.909Z,8.60
2022-09-15T10:15:42.772Z,16.63
2022-09-15T10:18:54.421Z,15.05
2022-09-15T10:22:01.331Z,11.88
2022-09-15T10:25:49.246Z,8.27
2022-09-15T10:29:15.077Z,6.65
2022-09-15T10:32:25.668Z,6.45
2022-09-15T10:35:34.486Z,9.30
2022-09-15T10:38:50.452Z,26.52
2022-09-15T10:42:28.705Z,25.60
2022-09-15T10:45:39.711Z,9.00
2022-09-15T10:49:01.462Z,6.43
2022-09-15T10:52:18.480Z,10.00
2022-09-15T10:55:58.893Z,10.57
2022-09-15T10:59:07.385Z,8.30
2022-09-15T11:02:15.387Z,9.27
2022-09-15T11:05:40.528Z,8.25
2022-09-15T11:08:54.448Z,7.57
2022-09-15T11:12:13.515Z,8.68
2022-09-15T11:15:48.915Z,9.82
2022-09-15T11:19:05.877Z,8.02
2022-09-15T11:22:14.235Z,6.95
2022-09-15T11:25:29.507Z,6.30
2022-09-15T11:28:50.296Z,5.10
2022-09-15T11:32:05.284Z,4.40
2022-09-15T11:35:43.206Z,2.80
2022-09-15T11:39:14.641Z,2.40
2022-09-15T11:42:26.128Z,2.10
2022-09-15T11:45:36.665Z,1.95
2022-09-15T11:49:04.908Z,2.13
2022-09-15T11:52:47.278Z,2.50
2022-09-15T11:56:11.197Z,2.22
2022-09-15T11:59:24.243Z,2.67
2022-09-15T12:02:49.822Z,4.15
2022-09-15T12:06:32.230Z,4.10
2022-09-15T12:09:36.912Z,4.70
2022-09-15T12:12:45.080Z,7.60
2022-09-15T12:15:50.987Z,9.25
2022-09-15T12:19:15.884Z,10.43
2022-09-15T12:22:24.944Z,11.27
2022-09-15T12:25:44.132Z,10.70
2022-09-15T12:28:51.892Z,11.95
2022-09-15T12:32:21.602Z,10.68
2022-09-15T12:35:27.325Z,7.63
2022-09-15T12:38:32.360Z,7.25
2022-09-15T12:41:37.315Z,8.75
2022-09-15T12:44:58.207Z,6.15
2022-09-15T12:48:13.766Z,6.93
2022-09-15T12:51:27.400Z,5.85
2022-09-15T12:54:34.695Z,3.80
2022-09-15T12:57:39.632Z,3.38
2022-09-15T13:01:16.935Z,2.58
2022-09-15T13:04:26.748Z,2.30
2022-09-15T13:07:37.267Z,2.65
2022-09-15T13:11:00.610Z,2.90
2022-09-15T13:14:07.567Z,3.00
2022-09-15T13:17:17.544Z,2.70
2022-09-15T13:20:31.236Z,2.47
2022-09-15T13:23:41.710Z,2.22
2022-09-15T13:26:53.029Z,2.83
2022-09-15T13:30:34.466Z,2.85
2022-09-15T13:38:23.975Z,2.78
2022-09-15T13:42:11.791Z,2.58
2022-09-15T13:45:43.003Z,2.78
2022-09-15T13:48:56.987Z,4.30
2022-09-15T13:52:11.414Z,4.88
2022-09-15T13:55:20.530Z,4.75
2022-09-15T14:01:53.167Z,5.63
2022-09-15T14:04:58.362Z,5.32
2022-09-15T14:08:34.393Z,5.72
2022-09-15T14:11:40.168Z,6.03
2022-09-15T14:14:54.515Z,5.97
2022-09-15T14:17:59.525Z,5.22
2022-09-15T14:21:06.971Z,4.97
2022-09-15T14:24:22.176Z,4.68
2022-09-15T14:27:33.506Z,5.00
2022-09-15T14:30:39.561Z,4.93
2022-09-15T14:33:46.822Z,5.20
2022-09-15T14:37:09.618Z,4.88
2022-09-15T14:40:26.491Z,3.92
2022-09-15T14:43:36.859Z,4.00
2022-09-15T14:46:41.555Z,3.05
2022-09-15T14:49:47.408Z,2.50
2022-09-15T14:53:08.083Z,2.00
2022-09-15T14:56:27.769Z,2.05
2022-09-15T14:59:36.350Z,2.63
2022-09-15T15:02:57.603Z,2.05
2022-09-15T15:06:29.983Z,2.30
2022-09-15T15:09:49.762Z,2.90
2022-09-15T15:12:58.848Z,2.40
2022-09-15T15:16:11.090Z,2.83
2022-09-15T15:19:43.485Z,2.90
2022-09-15T15:22:49.428Z,2.50
2022-09-15T15:25:55.034Z,3.10
2022-09-15T15:28:59.988Z,2.80
2022-09-15T15:32:14.961Z,2.25
2022-09-15T15:35:20.720Z,3.15
2022-09-15T15:38:27.942Z,2.80
2022-09-15T15:41:40.239Z,3.00
2022-09-15T15:45:04.575Z,2.67
2022-09-15T15:48:11.162Z,2.83
2022-09-15T15:51:16.947Z,1.92
2022-09-15T15:54:21.707Z,1.95
2022-09-15T15:57:31.861Z,2.10
2022-09-15T16:00:52.089Z,2.28
2022-09-15T16:03:56.871Z,2.30
2022-09-15T16:07:03.941Z,2.13
2022-09-15T16:10:10.189Z,2.22
2022-09-15T16:13:17.603Z,2.30
2022-09-15T16:16:28.247Z,2.30
2022-09-15T16:19:33.291Z,2.60
2022-09-15T16:22:40.029Z,3.17
2022-09-15T16:25:44.847Z,2.72
2022-09-15T16:28:49.605Z,2.65
2022-09-15T16:31:54.348Z,2.65
2022-09-15T16:34:59.118Z,2.70
2022-09-15T16:38:04.127Z,2.70
2022-09-15T16:41:20.646Z,2.72
2022-09-15T16:44:25.412Z,2.65
2022-09-15T16:47:30.335Z,2.45
2022-09-15T16:50:35.168Z,1.90
2022-09-15T16:53:40.828Z,1.58
2022-09-15T16:56:47.057Z,1.95
2022-09-15T16:59:51.741Z,2.38
2022-09-15T17:02:56.643Z,2.00
2022-09-15T17:06:02.818Z,2.20
2022-09-15T17:09:07.775Z,2.10
2022-09-15T17:15:42.210Z,2.30
2022-09-15T17:18:47.873Z,3.80
2022-09-15T17:21:53.886Z,5.95
2022-09-15T17:24:58.525Z,4.55
2022-09-15T17:28:03.587Z,4.03
2022-09-15T17:31:15.893Z,3.13
2022-09-15T17:34:21.216Z,2.90
2022-09-15T17:37:25.742Z,2.97
2022-09-15T17:40:31.474Z,2.47
2022-09-15T17:43:36.931Z,2.35
2022-09-15T17:46:41.807Z,2.63
2022-09-15T17:49:46.363Z,2.10
2022-09-15T17:52:51.977Z,2.75
2022-09-15T17:59:02.002Z,2.22
2022-09-15T18:02:18.865Z,2.08
2022-09-15T18:05:32.955Z,2.10
2022-09-15T18:08:38.150Z,2.15
2022-09-15T18:11:43.156Z,2.15
2022-09-15T18:14:48.369Z,2.28
2022-09-15T18:17:57.996Z,2.20
2022-09-15T18:21:03.245Z,2.08
2022-09-15T18:24:08.898Z,2.28
2022-09-15T18:27:13.800Z,2.30
2022-09-15T18:30:20.271Z,2.13
2022-09-15T18:33:51.950Z,2.67
2022-09-15T18:36:57.720Z,3.70
2022-09-15T18:40:03.178Z,3.20
2022-09-15T18:46:12.629Z,3.10
2022-09-15T18:49:17.480Z,4.13
2022-09-15T18:52:22.519Z,4.10
2022-09-15T18:55:27.446Z,4.00
2022-09-15T18:58:32.367Z,4.65
2022-09-15T19:01:37.355Z,4.03
2022-09-15T19:04:43.623Z,3.78
2022-09-15T19:07:48.516Z,3.97
2022-09-15T19:11:03.175Z,2.55
2022-09-15T19:14:08.631Z,2.38
2022-09-15T19:20:18.539Z,1.98
2022-09-15T19:23:23.436Z,1.80
2022-09-15T19:26:30.494Z,1.90
2022-09-15T19:29:39.779Z,2.25
2022-09-15T19:32:44.830Z,2.22
2022-09-15T19:35:59.994Z,2.70
2022-09-15T19:39:12.992Z,2.45
2022-09-15T19:42:18.337Z,2.38
2022-09-15T19:48:27.717Z,2.30
2022-09-15T19:51:32.469Z,2.20
2022-09-15T19:54:37.276Z,3.25
2022-09-15T19:57:43.349Z,1.83
2022-09-15T20:00:56.590Z,2.05
2022-09-15T20:04:02.812Z,2.20
2022-09-15T20:07:08.052Z,2.05
2022-09-15T20:10:13.457Z,2.47
2022-09-15T20:13:19.822Z,2.35
2022-09-15T20:16:25.664Z,3.50
2022-09-15T20:19:31.069Z,2.60
2022-09-15T20:22:35.722Z,3.20
2022-09-15T20:25:41.126Z,3.73
2022-09-15T20:28:46.126Z,4.20
2022-09-15T20:31:51.292Z,3.80
2022-09-15T20:34:56.198Z,3.95
2022-09-15T20:38:00.992Z,3.63
2022-09-15T20:41:08.540Z,4.57
2022-09-15T20:44:13.381Z,3.33
2022-09-15T20:47:18.211Z,4.13
2022-09-15T20:50:23.307Z,3.80
2022-09-15T20:53:28.212Z,3.25
2022-09-15T20:56:35.720Z,3.43
2022-09-15T20:59:40.466Z,3.70
2022-09-15T21:02:45.002Z,2.97
2022-09-15T21:05:49.966Z,2.40
2022-09-15T21:08:56.652Z,3.47
2022-09-15T21:12:01.800Z,3.47
2022-09-15T21:15:07.340Z,3.63
2022-09-15T21:21:26.758Z,2.88
2022-09-15T21:24:31.520Z,3.45
2022-09-15T21:27:36.442Z,5.23
2022-09-15T21:30:41.556Z,2.90
2022-09-15T21:33:47.970Z,3.80
2022-09-15T21:37:00.062Z,3.30
2022-09-15T21:40:05.486Z,3.42
2022-09-15T21:43:11.436Z,4.22
2022-09-15T21:47:04.904Z,6.10
2022-09-15T21:50:28.331Z,4.55
2022-09-15T21:53:47.470Z,5.88
2022-09-15T21:56:56.234Z,16.42
2022-09-15T22:00:01.046Z,17.42
2022-09-15T22:03:38.527Z,11.00
2022-09-15T22:06:43.589Z,12.90
2022-09-15T22:09:51.713Z,4.07
2022-09-15T22:12:56.472Z,2.75
2022-09-15T22:16:03.630Z,2.40
2022-09-15T22:19:10.824Z,2.75
2022-09-15T22:22:15.687Z,2.50
2022-09-15T22:25:24.523Z,2.40
2022-09-15T22:28:29.263Z,2.38
2022-09-15T22:31:34.788Z,3.97
2022-09-15T22:37:44.331Z,3.10
2022-09-15T22:40:49.445Z,25.63
2022-09-15T22:43:54.271Z,3.83
2022-09-15T22:46:58.948Z,2.60
2022-09-15T22:50:03.653Z,2.90
2022-09-15T22:53:08.435Z,3.72
2022-09-15T22:56:22.396Z,3.07
2022-09-15T22:59:27.004Z,2.85
2022-09-15T23:02:31.551Z,2.50
2022-09-15T23:05:36.210Z,2.42
2022-09-15T23:08:40.942Z,2.70
2022-09-15T23:11:45.670Z,2.80
2022-09-15T23:14:50.465Z,3.15
2022-09-15T23:17:55.214Z,3.20
2022-09-15T23:21:06.189Z,3.13
2022-09-15T23:24:13.326Z,2.90
2022-09-15T23:27:18.236Z,3.50
2022-09-15T23:30:23.094Z,3.50
2022-09-15T23:33:30.277Z,4.60
2022-09-15T23:36:35.217Z,3.97
2022-09-15T23:39:39.873Z,4.55
2022-09-15T23:42:44.960Z,5.60
2022-09-15T23:45:52.073Z,5.88
2022-09-15T23:48:57.161Z,6.82
2022-09-15T23:52:02.201Z,4.88
2022-09-15T23:55:07.641Z,5.55
2022-09-15T23:58:13.129Z,6.30
